Time;durP1;ratioP1;P1;durP2;ratioP2;P2;SDS_P1;SDS_P2;PMS_P1;PMS_P2;Temp;Humidity;BMP_temperature;BMP_pressure;BME280_temperature;BME280_humidity;BME280_pressure;Samples;Min_cycle;Max_cycle;Signal;HPM_P1;HPM_P2
2023/05/25 00:01:06;;;;;;;5.37;4.40;;;;;;;-143.84;80.77;45054.78;5090453;28;20951;-53
2023/05/25 00:03:34;;;;;;;7.70;3.87;;;;;;;-143.84;80.17;45054.78;5090512;28;20440;-53
2023/05/25 00:06:02;;;;;;;5.70;4.43;;;;;;;-143.84;79.89;45066.22;5090725;28;20497;-54
2023/05/25 00:08:29;;;;;;;4.67;4.30;;;;;;;-143.84;79.83;45081.44;5090699;28;20501;-54
2023/05/25 00:10:56;;;;;;;4.83;4.27;;;;;;;-143.84;79.87;45070.00;5090327;28;20440;-53
2023/05/25 00:13:23;;;;;;;5.40;4.20;;;;;;;-143.84;79.82;45096.66;5090299;28;20444;-53
2023/05/25 00:15:52;;;;;;;4.57;3.90;;;;;;;-143.84;79.84;45047.16;5090326;28;20486;-53
2023/05/25 00:18:19;;;;;;;4.70;4.30;;;;;;;-143.84;79.60;45073.81;5090538;28;20448;-53
2023/05/25 00:20:47;;;;;;;4.10;3.70;;;;;;;-143.84;79.37;45079.53;5090408;28;20631;-53
2023/05/25 00:23:14;;;;;;;3.97;3.63;;;;;;;-143.84;79.41;45081.44;5090415;28;21031;-53
2023/05/25 00:25:41;;;;;;;6.97;4.40;;;;;;;-143.84;79.34;45071.91;5090224;28;20440;-53
2023/05/25 00:28:08;;;;;;;5.17;4.17;;;;;;;-143.84;79.50;45068.13;5090136;28;20433;-53
2023/05/25 00:30:35;;;;;;;5.03;4.27;;;;;;;-143.84;79.90;45075.72;5090080;28;20529;-53
2023/05/25 00:33:04;;;;;;;7.10;4.63;;;;;;;-143.84;80.15;45081.44;5089905;28;20449;-53
2023/05/25 00:35:31;;;;;;;6.50;4.40;;;;;;;-143.84;80.24;45056.69;5090156;28;21007;-53
2023/05/25 00:37:58;;;;;;;5.30;4.27;;;;;;;-143.84;80.42;45089.06;5090022;28;21030;-53
2023/05/25 00:40:25;;;;;;;8.07;4.40;;;;;;;-143.84;80.31;45079.53;5089675;28;20970;-53
2023/05/25 00:42:53;;;;;;;3.83;3.57;;;;;;;-143.84;80.15;45045.25;5090013;28;20519;-53
2023/05/25 00:45:20;;;;;;;3.97;3.73;;;;;;;-143.84;80.25;45039.53;5089864;28;20525;-53
2023/05/25 00:47:52;;;;;;;4.00;3.70;;;;;;;-143.84;80.52;45066.22;5089600;28;20472;-53
2023/05/25 00:50:37;;;;;;;5.40;4.73;;;;;;;-143.84;80.33;45045.25;5089945;28;20451;-53
2023/05/25 00:53:05;;;;;;;4.97;4.00;;;;;;;-143.84;80.10;45066.22;5089748;28;20448;-53
2023/05/25 00:55:36;;;;;;;4.50;3.93;;;;;;;-143.84;79.94;45071.91;5090002;28;20947;-53
2023/05/25 00:58:05;;;;;;;5.70;4.40;;;;;;;-143.84;80.16;45066.22;5090202;28;20446;-53
2023/05/25 01:00:34;;;;;;;4.17;3.87;;;;;;;-143.84;80.19;45079.53;5089760;28;20480;-53
2023/05/25 01:03:10;;;;;;;6.60;4.40;;;;;;;-143.84;80.16;45090.97;5089417;28;20445;-53
2023/05/25 01:05:43;;;;;;;4.80;4.03;;;;;;;-143.84;80.16;45054.78;5089585;28;20440;-53
2023/05/25 01:08:13;;;;;;;4.60;4.20;;;;;;;-143.84;80.13;45058.59;5089571;28;20514;-53
2023/05/25 01:10:42;;;;;;;5.00;4.03;;;;;;;-143.84;79.84;45085.25;5089730;28;20436;-53
2023/05/25 01:13:10;;;;;;;5.37;4.70;;;;;;;-143.84;79.76;45071.91;5090043;28;20497;-53
2023/05/25 01:15:38;;;;;;;10.87;4.23;;;;;;;-143.84;79.77;45106.19;5088837;28;20497;-53
2023/05/25 01:18:08;;;;;;;4.70;4.30;;;;;;;-143.84;79.72;45071.91;5089156;28;20961;-53
2023/05/25 01:20:35;;;;;;;5.13;4.57;;;;;;;-143.84;79.65;45062.41;5089496;28;20512;-53
2023/05/25 01:23:12;;;;;;;7.73;4.23;;;;;;;-143.84;79.68;45071.91;5089364;28;20441;-53
2023/05/25 01:25:45;;;;;;;3.43;3.23;;;;;;;-143.84;79.71;45077.63;5089229;28;20440;-53
2023/05/25 01:28:17;;;;;;;4.40;4.00;;;;;;;-143.84;79.82;45062.41;5089285;28;20472;-53
2023/05/25 01:30:47;;;;;;;6.43;4.20;;;;;;;-143.84;79.84;45083.34;5089163;28;20447;-53
2023/05/25 01:33:16;;;;;;;5.60;4.37;;;;;;;-143.84;80.08;45087.16;5089233;28;20536;-53
2023/05/25 01:35:44;;;;;;;4.20;3.90;;;;;;;-143.84;79.98;45085.25;5089005;28;20938;-53
2023/05/25 01:38:13;;;;;;;4.30;3.90;;;;;;;-143.84;79.91;45062.41;5099336;28;20521;-53
2023/05/25 01:40:40;;;;;;;6.00;4.80;;;;;;;-143.84;80.06;45071.91;5109467;28;20626;-53
2023/05/25 01:43:07;;;;;;;5.10;4.60;;;;;;;-143.84;79.56;45066.22;5109696;28;20499;-53
2023/05/25 01:45:35;;;;;;;5.73;4.77;;;;;;;-143.84;78.78;45066.22;5109173;28;20439;-53
2023/05/25 01:48:11;;;;;;;6.33;4.10;;;;;;;-143.84;78.75;45075.72;5109507;28;20856;-53
2023/05/25 01:50:50;;;;;;;5.40;4.30;;;;;;;-143.84;78.52;45115.72;5109187;28;20451;-53
2023/05/25 01:53:24;;;;;;;5.10;4.50;;;;;;;-143.84;78.34;45087.16;5109323;28;20492;-53
2023/05/25 01:55:56;;;;;;;3.87;3.57;;;;;;;-143.84;78.28;45089.06;5109553;28;20439;-53
2023/05/25 01:58:25;;;;;;;7.50;3.87;;;;;;;-143.84;78.34;45071.91;5109369;28;20470;-53
2023/05/25 02:00:54;;;;;;;8.80;3.50;;;;;;;-143.84;78.40;45087.16;5109195;28;20890;-53
2023/05/25 02:03:21;;;;;;;5.50;3.50;;;;;;;-143.84;78.25;45111.91;5109152;28;20515;-53
2023/05/25 02:05:49;;;;;;;4.20;3.80;;;;;;;-143.84;78.28;45100.47;5108994;28;21025;-53
2023/05/25 02:08:16;;;;;;;6.43;4.03;;;;;;;-143.84;78.23;45094.78;5109063;28;20947;-53
2023/05/25 02:10:45;;;;;;;3.83;3.53;;;;;;;-143.84;78.28;45108.09;5109085;28;20452;-53
2023/05/25 02:13:12;;;;;;;9.27;3.60;;;;;;;-143.84;78.18;45098.56;5109260;28;20482;-53
2023/05/25 02:15:39;;;;;;;7.23;4.37;;;;;;;-143.84;78.33;45119.53;5108872;28;20500;-53
2023/05/25 02:18:07;;;;;;;4.83;4.20;;;;;;;-143.84;78.31;45083.34;5109065;28;20526;-53
2023/05/25 02:20:36;;;;;;;4.87;4.40;;;;;;;-143.84;78.25;45085.25;5108843;28;20486;-53
2023/05/25 02:23:03;;;;;;;9.50;3.93;;;;;;;-143.84;78.14;45098.56;5109060;28;21002;-53
2023/05/25 02:25:30;;;;;;;5.00;4.43;;;;;;;-143.84;78.28;45104.28;5109021;28;20933;-53
2023/05/25 02:27:58;;;;;;;4.47;4.17;;;;;;;-143.84;78.20;45094.78;5109390;27;20509;-53
2023/05/25 02:30:25;;;;;;;4.40;3.90;;;;;;;-143.84;78.44;45089.06;5112895;28;20809;-53
2023/05/25 02:32:53;;;;;;;4.47;4.07;;;;;;;-143.84;78.02;45106.19;5112509;28;20488;-54
2023/05/25 02:35:20;;;;;;;6.13;4.90;;;;;;;-143.84;78.09;45081.44;5112545;28;20435;-53
2023/05/25 02:37:47;;;;;;;7.43;4.50;;;;;;;-143.84;77.98;45087.16;5112622;28;20439;-54
2023/05/25 02:40:14;;;;;;;6.20;4.50;;;;;;;-143.84;78.26;45062.41;5112436;28;21079;-53
2023/05/25 02:42:41;;;;;;;4.53;3.63;;;;;;;-143.84;78.51;45073.81;5112785;28;20526;-54
2023/05/25 02:45:11;;;;;;;6.33;4.17;;;;;;;-143.84;78.49;45090.97;5112386;28;20439;-54
2023/05/25 02:47:38;;;;;;;4.73;4.33;;;;;;;-143.84;78.79;45058.59;5112646;28;20435;-53
2023/05/25 02:50:06;;;;;;;4.20;3.90;;;;;;;-143.84;78.54;45100.47;5112543;28;20960;-54
2023/05/25 02:52:33;;;;;;;4.97;4.47;;;;;;;-143.84;78.17;45073.81;5112741;28;20863;-54
2023/05/25 02:55:02;;;;;;;5.17;4.70;;;;;;;-143.84;77.88;45083.34;5112684;28;20516;-53
2023/05/25 02:57:30;;;;;;;4.10;3.73;;;;;;;-143.84;77.77;45085.25;5112367;28;20439;-54
2023/05/25 02:59:57;;;;;;;5.03;4.10;;;;;;;-143.84;77.71;45081.44;5112046;28;20920;-53
2023/05/25 03:02:27;;;;;;;8.53;4.50;;;;;;;-143.84;77.97;45094.78;5112286;28;20435;-53
2023/05/25 03:04:54;;;;;;;9.30;4.50;;;;;;;-143.84;78.11;45075.72;5111983;28;20453;-53
2023/05/25 03:07:24;;;;;;;8.40;4.97;;;;;;;-143.84;78.20;45054.78;5112130;28;20504;-53
2023/05/25 03:09:51;;;;;;;5.90;4.90;;;;;;;-143.84;78.43;45066.22;5112091;28;20441;-53
2023/05/25 03:12:18;;;;;;;6.10;4.70;;;;;;;-143.84;78.51;45089.06;5112235;28;20459;-54
2023/05/25 03:14:45;;;;;;;6.00;4.37;;;;;;;-143.84;78.66;45066.22;5111813;28;20448;-54
2023/05/25 03:17:12;;;;;;;6.00;3.67;;;;;;;-143.84;78.61;45077.63;5112064;28;20490;-54
2023/05/25 03:19:41;;;;;;;5.20;4.70;;;;;;;-143.84;78.61;45077.63;5111651;28;20451;-54
2023/05/25 03:22:08;;;;;;;4.63;3.97;;;;;;;-143.84;78.32;45071.91;5111760;28;20546;-54
2023/05/25 03:24:35;;;;;;;4.80;4.40;;;;;;;-143.84;78.33;45094.78;5111840;28;20448;-54
2023/05/25 03:27:02;;;;;;;6.87;4.53;;;;;;;-143.84;78.36;45092.88;5111736;28;20496;-54
2023/05/25 03:29:29;;;;;;;10.37;4.90;;;;;;;-143.84;78.37;45068.13;5111530;28;20435;-54
2023/05/25 03:31:56;;;;;;;7.83;3.50;;;;;;;-143.84;78.25;45083.34;5111295;28;20444;-54
2023/05/25 03:34:25;;;;;;;6.63;3.77;;;;;;;-143.84;77.91;45060.50;5111409;28;20532;-53
2023/05/25 03:36:54;;;;;;;4.77;4.37;;;;;;;-143.84;76.79;45081.44;5111567;28;20444;-53
2023/05/25 03:39:22;;;;;;;3.73;3.40;;;;;;;-143.84;76.40;45083.34;5100195;28;20493;-53
2023/05/25 03:41:49;;;;;;;5.00;4.60;;;;;;;-143.84;76.59;45056.69;5090953;28;20512;-54
2023/05/25 03:44:17;;;;;;;4.33;3.53;;;;;;;-143.84;76.46;45075.72;5091175;28;20481;-54
2023/05/25 03:46:44;;;;;;;5.63;3.80;;;;;;;-143.84;74.55;45106.19;5090957;28;20449;-53
2023/05/25 03:49:12;;;;;;;4.50;4.20;;;;;;;-143.84;74.07;45071.91;5091126;28;20444;-54
2023/05/25 03:51:40;;;;;;;5.47;3.70;;;;;;;-143.84;74.34;45111.91;5107399;28;20452;-54
2023/05/25 03:54:09;;;;;;;8.17;4.10;;;;;;;-143.84;73.35;45068.13;5111364;28;20449;-53
2023/05/25 03:56:36;;;;;;;3.93;3.63;;;;;;;-143.84;70.67;45090.97;5111530;28;20526;-53
2023/05/25 03:59:03;;;;;;;3.77;3.47;;;;;;;-143.84;69.35;45090.97;5111688;28;20434;-53
2023/05/25 04:01:30;;;;;;;3.60;3.30;;;;;;;-143.84;66.01;45068.13;5111245;28;20479;-54
2023/05/25 04:03:57;;;;;;;8.13;3.70;;;;;;;-143.84;64.72;45079.53;5110906;28;20563;-54
2023/05/25 04:06:25;;;;;;;3.63;3.30;;;;;;;-143.84;60.28;45064.31;5112670;27;20431;-54
2023/05/25 04:08:52;;;;;;;3.70;3.40;;;;;;;-143.84;57.17;45045.25;5131288;27;20526;-54
2023/05/25 04:11:21;;;;;;;3.23;3.00;;;;;;;-143.84;53.65;45104.28;5116319;27;20445;-51
2023/05/25 04:13:48;;;;;;;3.00;2.80;;;;;;;-143.84;54.95;45049.06;5094197;28;21030;-53
2023/05/25 04:16:15;;;;;;;4.20;3.53;;;;;;;-143.84;54.76;45037.66;5111188;28;20489;-52
2023/05/25 04:18:42;;;;;;;14.00;3.10;;;;;;;-143.84;52.47;45062.41;5111208;28;20437;-52
2023/05/25 04:21:09;;;;;;;3.50;3.17;;;;;;;-143.84;51.25;45050.97;5110650;28;20482;-52
2023/05/25 04:23:36;;;;;;;4.80;3.60;;;;;;;-143.84;49.76;45041.44;5107841;28;20962;-52
2023/05/25 04:26:04;;;;;;;3.97;3.13;;;;;;;-143.84;52.48;45028.13;5109847;28;20472;-52
2023/05/25 04:28:33;;;;;;;3.23;2.93;;;;;;;-143.84;50.42;45030.03;5109756;28;20525;-53
2023/05/25 04:31:00;;;;;;;6.53;3.60;;;;;;;-143.84;49.68;45026.22;5110424;28;20447;-52
2023/05/25 04:33:28;;;;;;;4.93;4.30;;;;;;;-143.84;48.75;45030.03;5110587;28;20431;-52
2023/05/25 04:35:57;;;;;;;5.27;3.10;;;;;;;-143.84;47.88;45010.97;5109763;28;20522;-52
2023/05/25 04:38:25;;;;;;;3.97;3.67;;;;;;;-143.84;46.52;45020.50;5109485;28;20944;-52
2023/05/25 04:40:53;;;;;;;3.07;2.83;;;;;;;-143.84;45.84;45003.38;5110164;28;20480;-52
2023/05/25 04:43:20;;;;;;;5.13;2.70;;;;;;;-143.84;46.04;45037.66;5110774;28;20439;-51
2023/05/25 04:45:50;;;;;;;9.80;3.60;;;;;;;-143.84;46.23;45010.97;5110799;28;20520;-52
2023/05/25 04:48:17;;;;;;;4.73;2.53;;;;;;;-143.84;44.74;44999.56;5110489;28;20551;-51
2023/05/25 04:50:44;;;;;;;6.17;3.10;;;;;;;-143.84;44.78;45012.88;5109916;28;21112;-52
2023/05/25 04:53:11;;;;;;;8.20;3.30;;;;;;;-143.84;45.49;45018.59;5110984;28;20436;-51
2023/05/25 04:55:38;;;;;;;5.27;3.30;;;;;;;-143.84;44.58;45031.94;5110738;28;20867;-51
2023/05/25 04:58:06;;;;;;;3.80;3.00;;;;;;;-143.84;44.24;45041.44;5110616;28;20773;-51
2023/05/25 05:00:34;;;;;;;5.67;3.77;;;;;;;-143.84;45.13;45010.97;5110659;28;20562;-51
2023/05/25 05:03:02;;;;;;;7.57;2.97;;;;;;;-143.84;45.41;45020.50;5110485;28;20431;-52
2023/05/25 05:05:29;;;;;;;8.03;3.30;;;;;;;-143.84;45.32;45022.41;5110796;28;20443;-52
2023/05/25 05:07:56;;;;;;;13.63;3.83;;;;;;;-143.84;45.66;45033.84;5110660;28;20453;-51
2023/05/25 05:10:24;;;;;;;10.30;3.77;;;;;;;-143.84;47.49;45047.16;5110114;28;20448;-51
2023/05/25 05:12:51;;;;;;;3.93;3.23;;;;;;;-143.84;46.89;45041.44;5110153;28;20501;-51
2023/05/25 05:15:18;;;;;;;8.17;3.70;;;;;;;-143.84;47.38;45062.41;5094451;28;20508;-50
2023/05/25 05:17:45;;;;;;;3.97;3.57;;;;;;;-143.84;47.20;45070.00;5089976;28;20582;-51
2023/05/25 05:20:14;;;;;;;7.13;3.73;;;;;;;-143.84;47.71;45026.22;5089822;28;20470;-51
2023/05/25 05:22:41;;;;;;;5.50;3.57;;;;;;;-143.84;48.12;45049.06;5090054;28;21237;-51
2023/05/25 05:25:08;;;;;;;6.40;3.70;;;;;;;-143.84;49.05;45037.66;5090207;28;21220;-51
2023/05/25 05:27:36;;;;;;;4.30;3.23;;;;;;;-143.84;47.77;45047.16;5089818;28;20443;-51
2023/05/25 05:30:03;;;;;;;3.53;3.10;;;;;;;-143.84;47.15;45041.44;5089744;28;21087;-51
2023/05/25 05:32:30;;;;;;;4.03;3.50;;;;;;;-143.84;47.10;45031.94;5090154;28;20516;-51
2023/05/25 05:34:57;;;;;;;8.43;4.17;;;;;;;-143.84;47.32;45024.31;5089545;28;20495;-51
2023/05/25 05:37:25;;;;;;;4.83;3.73;;;;;;;-143.84;46.58;45007.19;5103212;28;20845;-52
2023/05/25 05:39:52;;;;;;;3.40;3.10;;;;;;;-143.84;45.85;45020.50;5109694;28;20496;-51
2023/05/25 05:42:20;;;;;;;3.90;3.60;;;;;;;-143.84;43.65;44993.84;5109778;28;20467;-50
2023/05/25 05:44:47;;;;;;;6.67;3.57;;;;;;;-143.84;43.47;45014.78;5091571;28;20469;-52
2023/05/25 05:47:14;;;;;;;5.20;3.00;;;;;;;-143.84;41.88;44999.56;5089511;28;20496;-50
2023/05/25 05:49:41;;;;;;;3.53;2.93;;;;;;;-143.84;41.06;44965.28;5089562;28;20436;-52
2023/05/25 05:52:09;;;;;;;9.90;3.40;;;;;;;-143.84;41.71;44993.84;5088876;28;20999;-51
2023/05/25 05:54:38;;;;;;;8.70;3.63;;;;;;;-143.84;41.27;44991.94;5088956;28;20444;-52
2023/05/25 05:57:05;;;;;;;13.40;10.33;;;;;;;-143.84;42.09;44978.63;5088749;28;20819;-52
2023/05/25 05:59:32;;;;;;;11.40;9.53;;;;;;;-143.84;41.53;44967.19;5089321;28;20444;-51
2023/05/25 06:01:59;;;;;;;7.10;5.70;;;;;;;-143.84;40.10;44976.72;5102274;28;20860;-51
2023/05/25 06:04:27;;;;;;;7.10;3.67;;;;;;;-143.84;39.48;44969.09;5113880;28;20503;-50
2023/05/25 06:06:55;;;;;;;4.10;3.80;;;;;;;-143.84;39.83;44984.31;5113733;28;20506;-52
2023/05/25 06:09:22;;;;;;;13.83;6.80;;;;;;;-143.84;39.94;44986.22;5113395;28;20454;-51
2023/05/25 06:11:50;;;;;;;8.43;6.80;;;;;;;-143.84;38.84;44953.88;5113734;28;20439;-52
2023/05/25 06:14:17;;;;;;;21.33;12.07;;;;;;;-143.84;38.72;44959.56;5113824;28;20523;-51
2023/05/25 06:16:44;;;;;;;19.20;11.50;;;;;;;-143.84;39.83;44972.91;5113375;28;20859;-52
2023/05/25 06:19:13;;;;;;;21.03;11.20;;;;;;;-143.84;38.46;44969.09;5113476;28;20507;-51
2023/05/25 06:21:40;;;;;;;21.73;11.33;;;;;;;-143.84;37.73;44959.56;5113174;28;20486;-51
2023/05/25 06:24:08;;;;;;;11.13;10.03;;;;;;;-143.84;37.44;44957.66;5113249;28;20449;-52
2023/05/25 06:26:35;;;;;;;10.60;9.13;;;;;;;-143.84;38.08;44955.75;5113297;28;20442;-52
2023/05/25 06:29:03;;;;;;;27.20;12.70;;;;;;;-143.84;37.71;44932.91;5113541;28;20440;-50
2023/05/25 06:31:30;;;;;;;28.33;20.93;;;;;;;-143.84;37.83;44959.56;5112881;28;20435;-53
2023/05/25 06:33:57;;;;;;;59.80;39.53;;;;;;;-143.84;37.41;44971.00;5111745;28;20440;-53
2023/05/25 06:36:25;;;;;;;23.90;14.30;;;;;;;-143.84;37.33;44967.19;5112767;28;21247;-52
2023/05/25 06:38:52;;;;;;;18.87;14.13;;;;;;;-143.84;37.54;44974.81;5112619;28;20493;-52
2023/05/25 06:41:19;;;;;;;18.63;14.30;;;;;;;-143.84;38.02;44961.47;5112811;28;20475;-51
2023/05/25 06:43:46;;;;;;;20.53;12.97;;;;;;;-143.84;38.72;44961.47;5112883;28;20443;-51
2023/05/25 06:46:16;;;;;;;18.77;13.77;;;;;;;-143.84;38.81;44957.66;5112896;28;20933;-52
2023/05/25 06:48:44;;;;;;;25.73;16.83;;;;;;;-143.84;38.93;44971.00;5112638;28;20497;-55
2023/05/25 06:51:12;;;;;;;15.63;13.67;;;;;;;-143.84;39.23;44991.94;5112325;28;20512;-55
2023/05/25 06:53:39;;;;;;;30.50;15.67;;;;;;;-143.84;40.06;44984.31;5112302;28;20447;-55
2023/05/25 11:05:38;;;;;;;6.67;3.30;;;;;;;-143.84;41.45;44988.13;4954476;28;20494;-58
2023/05/25 11:08:07;;;;;;;7.93;2.80;;;;;;;-143.84;40.26;44953.88;4953570;29;20452;-59
2023/05/25 11:10:53;;;;;;;3.70;2.90;;;;;;;-143.84;41.23;44953.88;4953406;29;20891;-60
2023/05/25 11:13:37;;;;;;;3.20;2.97;;;;;;;-143.84;39.62;44995.75;4953043;29;20453;-60
2023/05/25 11:16:23;;;;;;;6.40;3.60;;;;;;;-143.84;42.16;44971.00;4952802;29;20446;-60
2023/05/25 11:18:52;;;;;;;4.03;2.77;;;;;;;-143.84;41.00;44936.72;4953367;29;20448;-60
2023/05/25 11:21:42;;;;;;;2.43;2.23;;;;;;;-143.84;40.27;44942.44;4953046;29;20811;-60
2023/05/25 11:24:17;;;;;;;4.90;2.93;;;;;;;-143.84;41.11;44971.00;4953141;29;20541;-60
2023/05/25 11:26:59;;;;;;;2.60;2.40;;;;;;;-143.84;41.54;44948.16;4953038;29;20457;-60
2023/05/25 11:29:31;;;;;;;7.93;3.30;;;;;;;-143.84;41.71;44931.00;4953067;29;20473;-60
2023/05/25 11:31:59;;;;;;;2.40;2.00;;;;;;;-143.84;39.51;44953.88;4952899;29;20439;-60
2023/05/25 11:34:28;;;;;;;5.37;2.50;;;;;;;-143.84;38.88;44959.56;4953187;29;20458;-60
2023/05/25 11:37:00;;;;;;;3.50;2.73;;;;;;;-143.84;39.62;44986.22;4952833;29;20446;-59
2023/05/25 11:39:28;;;;;;;5.37;3.20;;;;;;;-143.84;40.56;44942.44;4952602;29;20443;-60
2023/05/25 11:41:56;;;;;;;7.10;2.73;;;;;;;-143.84;40.13;44978.63;4952868;29;20478;-61
2023/05/25 11:44:28;;;;;;;8.47;3.90;;;;;;;-143.84;40.85;44993.84;4952952;29;20447;-55
2023/05/25 11:47:00;;;;;;;8.00;3.70;;;;;;;-143.84;40.77;44988.13;4952762;29;20523;-55
2023/05/25 11:49:27;;;;;;;14.60;4.80;;;;;;;-143.84;42.03;44976.72;4952747;29;20458;-55
2023/05/25 11:51:57;;;;;;;9.17;4.73;;;;;;;-143.84;42.19;44980.53;4952675;29;20449;-55
2023/05/25 11:54:25;;;;;;;27.40;10.63;;;;;;;-143.84;43.32;44999.56;4952185;29;20447;-55
2023/05/25 11:56:56;;;;;;;6.97;3.57;;;;;;;-143.84;43.83;44982.41;4952286;29;20523;-56
2023/05/25 11:59:23;;;;;;;19.70;3.90;;;;;;;-143.84;43.66;45001.47;4952397;28;20439;-56
2023/05/25 12:01:58;;;;;;;6.23;3.33;;;;;;;-143.84;45.52;44976.72;4951597;29;20490;-56
2023/05/25 12:04:25;;;;;;;2.53;2.33;;;;;;;-143.84;43.71;45014.78;4960543;28;20497;-55
2023/05/25 12:06:53;;;;;;;12.37;3.27;;;;;;;-143.84;41.57;45007.19;4970734;28;20822;-61
2023/05/25 12:09:22;;;;;;;2.80;2.47;;;;;;;-143.84;42.59;45005.28;4970921;28;20460;-61
2023/05/25 12:11:50;;;;;;;4.60;3.00;;;;;;;-143.84;42.56;45020.50;4971173;28;20442;-61
2023/05/25 12:14:17;;;;;;;3.27;2.53;;;;;;;-143.84;42.30;45003.38;4972073;28;20461;-61
2023/05/25 12:16:45;;;;;;;3.20;2.60;;;;;;;-143.84;42.89;44991.94;4972605;28;21121;-61
2023/05/25 12:19:12;;;;;;;4.50;2.70;;;;;;;-143.84;42.39;45010.97;4971880;28;20445;-61
2023/05/25 12:21:41;;;;;;;93.90;65.83;;;;;;;-143.84;42.45;44995.75;4971353;28;20453;-62
2023/05/25 12:24:11;;;;;;;26.57;18.93;;;;;;;-143.84;41.88;44997.66;4971661;28;21094;-61
2023/05/25 12:26:48;;;;;;;4.93;4.13;;;;;;;-143.84;42.79;44999.56;4972144;28;20452;-60
2023/05/25 12:29:16;;;;;;;3.93;3.60;;;;;;;-143.84;43.53;45028.13;4991063;28;20534;-60
2023/05/25 12:31:43;;;;;;;5.47;4.30;;;;;;;-143.84;45.07;45007.19;4990831;28;20452;-60
2023/05/25 12:34:12;;;;;;;4.20;3.90;;;;;;;-143.84;45.93;45018.59;4991998;28;20447;-59
2023/05/25 12:36:41;;;;;;;4.47;3.97;;;;;;;-143.84;46.94;45003.38;4991936;28;20448;-60
2023/05/25 12:39:10;;;;;;;10.00;4.30;;;;;;;-143.84;49.13;45030.03;4992239;28;20455;-60
2023/05/25 12:41:45;;;;;;;4.87;4.50;;;;;;;-143.84;52.06;45012.88;4991945;28;20523;-60
2023/05/25 12:44:30;;;;;;;15.93;6.00;;;;;;;-143.84;54.66;45009.09;4992003;28;20509;-60
2023/05/25 12:47:08;;;;;;;14.60;4.70;;;;;;;-143.84;53.92;45031.94;4991864;28;20449;-59
2023/05/25 12:49:36;;;;;;;7.80;3.90;;;;;;;-143.84;53.43;45024.31;4991979;28;20478;-60
2023/05/25 12:52:04;;;;;;;6.07;4.67;;;;;;;-143.84;51.51;45018.59;4991758;28;20439;-55
2023/05/25 12:54:36;;;;;;;9.50;4.63;;;;;;;-143.84;52.53;45022.41;4992202;28;20454;-54
2023/05/25 12:57:05;;;;;;;11.03;4.53;;;;;;;-143.84;52.89;45030.03;4991838;28;20449;-54
2023/05/25 12:59:34;;;;;;;10.63;4.30;;;;;;;-143.84;51.80;45039.53;4991693;28;20531;-54
2023/05/25 13:02:02;;;;;;;5.47;3.90;;;;;;;-143.84;51.58;45033.84;4991622;28;21159;-55
2023/05/25 13:04:29;;;;;;;4.93;3.70;;;;;;;-143.84;50.67;45022.41;4991562;28;20575;-55
2023/05/25 13:06:56;;;;;;;4.30;3.77;;;;;;;-143.84;50.26;45024.31;4991687;28;20455;-56
2023/05/25 13:09:25;;;;;;;14.60;4.40;;;;;;;-143.84;52.37;45016.69;4991288;28;20456;-56
2023/05/25 13:11:54;;;;;;;7.30;4.60;;;;;;;-143.84;52.64;45022.41;4991160;28;20472;-56
2023/05/25 13:14:22;;;;;;;4.43;4.03;;;;;;;-143.84;52.22;45009.09;4991344;28;20798;-56
2023/05/25 13:16:51;;;;;;;17.40;3.80;;;;;;;-143.84;51.00;45030.03;4990089;28;20430;-55
2023/05/25 13:19:19;;;;;;;9.40;3.13;;;;;;;-143.84;53.87;45033.84;4989397;28;20505;-60
2023/05/25 13:21:48;;;;;;;15.20;4.10;;;;;;;-143.84;52.60;44990.03;4989990;28;20451;-60
2023/05/25 13:24:15;;;;;;;9.43;2.70;;;;;;;-143.84;54.21;45039.53;4989826;28;20805;-55
2023/05/25 13:26:43;;;;;;;32.93;4.80;;;;;;;-143.84;56.21;45026.22;4989595;28;20493;-55
2023/05/25 13:29:11;;;;;;;146.70;9.30;;;;;;;-143.84;56.32;45041.44;4988421;28;20455;-54
2023/05/25 13:31:38;;;;;;;13.30;5.00;;;;;;;-143.84;57.13;45001.47;4988066;28;20464;-54
2023/05/25 13:34:07;;;;;;;6.60;3.20;;;;;;;-143.84;56.70;45026.22;4986743;28;20580;-54
2023/05/25 13:36:34;;;;;;;5.67;3.30;;;;;;;-143.84;56.47;45031.94;4987131;28;20468;-54
2023/05/25 13:39:04;;;;;;;11.93;3.40;;;;;;;-143.84;57.18;45012.88;4985339;28;20451;-54
2023/05/25 13:41:32;;;;;;;4.40;2.60;;;;;;;-143.84;57.53;45024.31;4986753;28;20470;-54
2023/05/25 13:44:00;;;;;;;4.37;2.37;;;;;;;-143.84;56.71;45031.94;4985872;28;20486;-54
2023/05/25 13:46:27;;;;;;;3.20;2.57;;;;;;;-143.84;56.45;45035.75;4987604;28;20874;-54
2023/05/25 13:48:54;;;;;;;5.20;3.13;;;;;;;-143.84;58.40;45052.88;4988045;28;20516;-54
2023/05/25 13:51:22;;;;;;;13.40;3.33;;;;;;;-143.84;57.26;45047.16;4987789;28;20560;-54
2023/05/25 13:53:49;;;;;;;7.17;2.90;;;;;;;-143.84;56.47;45041.44;4987964;28;20448;-54
2023/05/25 13:56:16;;;;;;;3.93;2.50;;;;;;;-143.84;55.77;45047.16;4988064;28;20533;-54
2023/05/25 13:58:43;;;;;;;7.63;2.70;;;;;;;-143.84;56.69;45041.44;4989349;28;20442;-53
2023/05/25 14:01:11;;;;;;;10.57;2.47;;;;;;;-143.84;54.48;45030.03;4988553;28;21027;-54
2023/05/25 14:03:38;;;;;;;4.93;2.50;;;;;;;-143.84;51.19;45050.97;4984092;28;21038;-54
2023/05/25 14:06:06;;;;;;;3.33;2.90;;;;;;;-143.84;50.13;45047.16;4972931;28;20528;-54
2023/05/25 14:08:34;;;;;;;4.87;2.70;;;;;;;-143.84;50.96;45030.03;4969622;28;21013;-55
2023/05/25 14:11:01;;;;;;;7.93;2.10;;;;;;;-143.84;50.65;45045.25;4956759;28;20472;-54
2023/05/25 14:13:29;;;;;;;2.63;2.20;;;;;;;-143.84;50.69;45068.13;4970036;28;20461;-54
2023/05/25 14:15:56;;;;;;;2.90;2.70;;;;;;;-143.84;51.46;45024.31;4969815;28;20981;-54
2023/05/25 14:18:23;;;;;;;2.53;2.33;;;;;;;-143.84;51.16;45050.97;4969636;28;20440;-54
2023/05/25 14:20:51;;;;;;;4.83;2.57;;;;;;;-143.84;50.24;45037.66;4969655;28;20964;-54
2023/05/25 14:23:18;;;;;;;8.93;2.13;;;;;;;-143.84;50.45;45050.97;4971077;28;20567;-54
2023/05/25 14:25:48;;;;;;;5.80;2.27;;;;;;;-143.84;49.39;45047.16;4973805;28;20442;-54
2023/05/25 14:28:15;;;;;;;12.07;2.23;;;;;;;-143.84;49.11;45030.03;4972908;28;20917;-54
2023/05/25 14:30:42;;;;;;;4.90;2.43;;;;;;;-143.84;49.42;45043.34;4970002;28;20455;-54
2023/05/25 14:33:12;;;;;;;3.83;2.20;;;;;;;-143.84;47.69;45033.84;4973825;28;20448;-54
2023/05/25 14:35:41;;;;;;;4.70;2.10;;;;;;;-143.84;48.23;45018.59;4971822;28;20447;-54
2023/05/25 14:38:08;;;;;;;5.83;2.20;;;;;;;-143.84;48.63;45031.94;4973265;28;20455;-54
2023/05/25 14:40:35;;;;;;;6.30;1.83;;;;;;;-143.84;49.13;45020.50;4966814;28;20473;-54
2023/05/25 14:43:03;;;;;;;2.43;2.20;;;;;;;-143.84;49.23;45035.75;4978258;28;20511;-54
2023/05/25 14:45:30;;;;;;;2.10;1.90;;;;;;;-143.84;47.81;45030.03;4973195;28;20486;-54
2023/05/25 14:47:58;;;;;;;3.57;1.87;;;;;;;-143.84;46.97;45014.78;4978707;28;20445;-54
2023/05/25 14:50:25;;;;;;;1.93;1.77;;;;;;;-143.84;42.52;45047.16;4982792;28;20551;-54
2023/05/25 14:52:52;;;;;;;5.47;2.17;;;;;;;-143.84;42.42;45012.88;4973247;28;20449;-54
2023/05/25 14:55:19;;;;;;;2.47;2.27;;;;;;;-143.84;42.31;45054.78;4974424;28;20505;-54
2023/05/25 14:57:46;;;;;;;9.43;2.77;;;;;;;-143.84;48.48;45035.75;4971991;28;20468;-54
2023/05/25 15:00:15;;;;;;;6.40;2.80;;;;;;;-143.84;50.25;45033.84;4977800;28;20547;-54
2023/05/25 15:02:43;;;;;;;6.60;2.90;;;;;;;-143.84;50.97;45045.25;4981996;28;20526;-54
2023/05/25 15:05:10;;;;;;;7.83;3.10;;;;;;;-143.84;52.74;45033.84;4988253;28;20528;-54
2023/05/25 15:07:37;;;;;;;7.37;2.87;;;;;;;-143.84;53.40;45039.53;4989698;28;20473;-54
2023/05/25 15:10:04;;;;;;;14.77;2.97;;;;;;;-143.84;54.75;45043.34;4989828;28;20454;-54
2023/05/25 15:12:31;;;;;;;21.27;4.20;;;;;;;-143.84;54.83;45041.44;4984827;28;20455;-54
2023/05/25 15:14:59;;;;;;;7.03;3.30;;;;;;;-143.84;55.19;45062.41;4978643;28;20451;-54
2023/05/25 15:17:27;;;;;;;18.83;3.10;;;;;;;-143.84;55.32;45064.31;4988726;28;20445;-54
2023/05/25 15:19:54;;;;;;;8.17;3.30;;;;;;;-143.84;55.26;45064.31;4988898;28;20452;-54
2023/05/25 15:22:21;;;;;;;9.97;3.47;;;;;;;-143.84;56.08;45030.03;4987561;28;20469;-54
2023/05/25 15:24:49;;;;;;;10.60;3.40;;;;;;;-143.84;57.30;45037.66;4991187;28;20477;-54
2023/05/25 15:27:16;;;;;;;15.83;4.00;;;;;;;-143.84;57.68;45030.03;4988940;28;20448;-54
2023/05/25 15:29:44;;;;;;;14.20;3.47;;;;;;;-143.84;58.14;45020.50;4989516;28;20437;-54